Time;durP1;ratioP1;P1;durP2;ratioP2;P2;SDS_P1;SDS_P2;PMS_P1;PMS_P2;Temp;Humidity;BMP_temperature;BMP_pressure;BME280_temperature;BME280_humidity;BME280_pressure;Samples;Min_cycle;Max_cycle;Signal;HPM_P1;HPM_P2
2023/08/11 00:01:18;;;;;;;2.72;2.17;;;15.60;99.90;;;15.42;100.00;97735.91;5038213;28;20079;-37
2023/08/11 00:03:44;;;;;;;2.88;2.30;;;15.60;99.90;;;15.41;100.00;97728.88;5039475;28;20029;-38
2023/08/11 00:06:10;;;;;;;2.70;2.40;;;15.60;99.90;;;15.40;100.00;97730.66;5052436;28;20033;-37
2023/08/11 00:08:39;;;;;;;3.00;2.15;;;15.60;99.90;;;15.44;100.00;97729.56;5037092;28;20495;-37
2023/08/11 00:11:06;;;;;;;2.47;1.80;;;15.60;99.90;;;15.47;100.00;97725.91;5037253;28;20025;-37
2023/08/11 00:13:31;;;;;;;3.28;2.03;;;15.70;99.90;;;15.50;100.00;97725.72;5038578;28;20020;-37
2023/08/11 00:15:58;;;;;;;3.78;2.30;;;15.70;99.90;;;15.54;100.00;97735.28;5033837;28;20455;-37
2023/08/11 00:18:24;;;;;;;2.78;1.90;;;15.70;99.90;;;15.55;100.00;97726.34;5035282;28;20559;-37
2023/08/11 00:20:49;;;;;;;2.88;1.90;;;15.70;99.90;;;15.51;100.00;97719.47;5037761;28;20501;-37
2023/08/11 00:23:15;;;;;;;2.97;2.10;;;15.70;99.90;;;15.40;100.00;97722.69;5034672;28;20033;-37
2023/08/11 00:25:41;;;;;;;4.95;2.00;;;15.70;99.90;;;15.41;100.00;97729.72;5040572;28;20102;-38
2023/08/11 00:28:06;;;;;;;3.45;2.40;;;15.60;99.90;;;15.35;100.00;97732.69;5037111;28;20028;-37
2023/08/11 00:30:32;;;;;;;3.35;2.45;;;15.60;99.90;;;15.30;100.00;97734.72;5035150;28;20037;-37
2023/08/11 00:32:58;;;;;;;4.55;2.90;;;15.50;99.90;;;15.25;100.00;97732.31;5038426;28;20179;-37
2023/08/11 00:35:23;;;;;;;3.30;2.70;;;15.40;99.90;;;15.21;100.00;97735.19;5035322;28;20392;-37
2023/08/11 00:37:50;;;;;;;4.38;2.92;;;15.40;99.90;;;15.19;100.00;97740.56;5036140;28;20036;-37
2023/08/11 00:40:16;;;;;;;5.55;3.47;;;15.40;99.90;;;15.15;100.00;97736.38;5033851;28;20021;-37
2023/08/11 00:42:42;;;;;;;5.07;3.20;;;15.30;99.90;;;15.11;100.00;97736.59;5036048;28;20397;-37
2023/08/11 00:45:09;;;;;;;4.38;3.10;;;15.30;99.90;;;15.08;100.00;97746.44;5036138;28;20151;-37
2023/08/11 00:47:35;;;;;;;5.45;2.95;;;15.30;99.90;;;15.01;100.00;97737.03;5034670;28;20044;-37
2023/08/11 00:50:02;;;;;;;3.05;2.75;;;15.20;99.90;;;14.90;100.00;97728.75;5035594;28;20025;-37
2023/08/11 00:52:28;;;;;;;4.15;2.85;;;15.20;99.90;;;14.93;100.00;97739.25;5053196;28;20145;-37
2023/08/11 00:54:57;;;;;;;7.25;3.30;;;15.10;99.90;;;14.88;100.00;97727.97;5036752;28;20033;-37
2023/08/11 00:57:23;;;;;;;5.45;3.20;;;15.10;99.90;;;14.84;100.00;97731.69;5034473;28;20526;-37
2023/08/11 00:59:49;;;;;;;3.95;3.00;;;15.00;99.90;;;14.79;100.00;97734.59;5038345;28;20044;-37
2023/08/11 01:02:15;;;;;;;4.50;3.20;;;15.00;99.90;;;14.76;100.00;97733.88;5032894;28;20029;-37
2023/08/11 01:04:42;;;;;;;4.25;2.90;;;15.00;99.90;;;14.68;100.00;97723.63;5036690;28;20464;-37
2023/08/11 01:07:39;;;;;;;4.53;2.70;;;14.90;99.90;;;14.67;100.00;97732.53;5036506;28;20021;-37
2023/08/11 01:10:39;;;;;;;6.03;3.10;;;14.90;99.90;;;14.62;100.00;97734.53;5028148;28;20116;-37
2023/08/11 01:13:19;;;;;;;4.63;3.13;;;14.90;99.90;;;14.60;100.00;97739.91;5035153;28;20075;-37
2023/08/11 01:15:57;;;;;;;4.07;2.92;;;14.80;99.90;;;14.64;100.00;97741.50;5038308;28;20246;-37
2023/08/11 01:18:24;;;;;;;7.13;3.20;;;14.80;99.90;;;14.62;100.00;97738.03;5038523;28;20029;-37
2023/08/11 01:20:55;;;;;;;3.78;3.05;;;14.80;99.90;;;14.49;100.00;97727.13;5035969;28;20104;-37
2023/08/11 01:23:22;;;;;;;3.30;2.65;;;14.80;99.90;;;14.49;100.00;97737.75;5038089;28;20029;-38
2023/08/11 01:25:48;;;;;;;3.78;2.90;;;14.70;99.90;;;14.49;100.00;97736.88;5036708;28;20033;-37
2023/08/11 01:28:14;;;;;;;4.68;3.05;;;14.70;99.90;;;14.43;100.00;97739.84;5036734;28;20090;-37
2023/08/11 01:30:40;;;;;;;6.13;3.05;;;14.60;99.90;;;14.40;100.00;97747.94;5039498;28;20369;-37
2023/08/11 01:33:05;;;;;;;5.40;2.90;;;14.60;99.90;;;14.39;100.00;97748.84;5037059;28;20037;-37
2023/08/11 01:35:31;;;;;;;4.38;3.03;;;14.60;99.90;;;14.35;100.00;97747.28;5034685;28;20061;-37
2023/08/11 01:37:57;;;;;;;5.13;3.10;;;14.60;99.90;;;14.30;100.00;97744.84;5031721;28;20465;-37
2023/08/11 01:40:23;;;;;;;3.30;2.75;;;14.60;99.90;;;14.28;100.00;97752.00;5036420;28;20028;-38
2023/08/11 01:42:50;;;;;;;4.78;3.55;;;14.50;99.90;;;14.26;100.00;97757.38;5037588;28;20471;-37
2023/08/11 01:45:17;;;;;;;4.68;3.38;;;14.50;99.90;;;14.26;100.00;97754.72;5035149;28;20072;-37
2023/08/11 01:47:46;;;;;;;4.32;3.17;;;14.50;99.90;;;14.21;100.00;97759.41;5031195;28;20128;-37
2023/08/11 01:50:14;;;;;;;6.03;3.50;;;14.50;99.90;;;14.22;100.00;97763.78;5035866;28;20444;-37
2023/08/11 01:52:43;;;;;;;5.05;3.33;;;14.50;99.90;;;14.18;100.00;97750.75;5033265;28;20033;-37
2023/08/11 01:55:10;;;;;;;6.75;3.45;;;14.40;99.90;;;14.15;100.00;97748.22;5033521;28;20061;-37
2023/08/11 01:57:37;;;;;;;4.28;3.30;;;14.40;99.90;;;14.13;100.00;97750.94;5042850;28;20134;-37
2023/08/11 02:00:12;;;;;;;4.97;3.30;;;14.40;99.90;;;14.11;100.00;97753.66;5039521;28;20041;-37
2023/08/11 02:02:43;;;;;;;4.65;3.53;;;14.40;99.90;;;13.99;100.00;97727.69;5040344;28;20485;-37
2023/08/11 02:05:11;;;;;;;3.90;3.10;;;14.40;99.90;;;14.07;100.00;97741.47;5038821;28;20031;-37
2023/08/11 02:07:37;;;;;;;5.30;3.63;;;14.30;99.90;;;14.04;100.00;97738.94;5043680;28;20032;-37
2023/08/11 02:10:04;;;;;;;4.75;3.45;;;14.30;99.90;;;14.01;100.00;97733.78;5036821;28;20033;-37
2023/08/11 02:12:30;;;;;;;7.45;3.33;;;14.30;99.90;;;13.99;100.00;97738.28;5041536;28;20044;-37
2023/08/11 02:14:56;;;;;;;5.15;3.70;;;14.20;99.90;;;13.97;100.00;97732.19;5039712;28;20025;-37
2023/08/11 02:17:21;;;;;;;6.35;3.70;;;14.20;99.90;;;13.96;100.00;97735.78;5037629;28;20020;-37
2023/08/11 02:19:47;;;;;;;5.32;3.28;;;14.20;99.90;;;13.96;100.00;97732.25;5028925;28;20048;-37
2023/08/11 02:22:13;;;;;;;4.50;3.45;;;14.20;99.90;;;13.94;100.00;97734.97;5037098;28;20036;-37
2023/08/11 02:24:39;;;;;;;6.03;3.85;;;14.20;99.90;;;13.91;100.00;97733.34;5038895;28;20233;-37
2023/08/11 02:27:04;;;;;;;6.55;3.40;;;14.20;99.90;;;13.90;100.00;97744.00;5038688;28;20585;-37
2023/08/11 02:29:31;;;;;;;4.00;3.20;;;14.10;99.90;;;13.88;100.00;97740.56;5036995;28;20151;-37
2023/08/11 02:31:57;;;;;;;5.78;3.42;;;14.10;99.90;;;13.86;100.00;97738.00;5034657;28;20516;-37
2023/08/11 02:34:23;;;;;;;5.85;3.58;;;14.10;99.90;;;13.85;100.00;97736.25;5041353;28;20033;-37
2023/08/11 02:36:49;;;;;;;5.07;3.30;;;14.10;99.90;;;13.82;100.00;97741.72;5037837;28;20068;-37
2023/08/11 02:39:15;;;;;;;4.80;3.47;;;14.00;99.90;;;13.79;100.00;97735.69;5036564;28;20424;-37
2023/08/11 02:41:42;;;;;;;3.33;2.90;;;14.00;99.90;;;13.78;100.00;97723.34;5034744;28;20119;-37
2023/08/11 02:44:08;;;;;;;3.53;3.10;;;14.00;99.90;;;13.74;100.00;97722.63;5038537;28;20028;-37
2023/08/11 02:46:34;;;;;;;3.70;3.10;;;14.00;99.90;;;13.73;100.00;97728.88;5039989;28;20508;-37
2023/08/11 02:49:00;;;;;;;6.18;3.40;;;14.00;99.90;;;13.68;100.00;97730.88;5038224;28;20024;-37
2023/08/11 02:51:25;;;;;;;5.38;3.88;;;13.90;99.90;;;13.69;100.00;97729.91;5038920;28;20033;-37
2023/08/11 02:53:51;;;;;;;4.38;3.20;;;13.90;99.90;;;13.67;100.00;97726.47;5043811;28;20064;-37
2023/08/11 02:56:17;;;;;;;4.05;3.20;;;13.90;99.90;;;13.65;100.00;97726.53;5036423;28;20029;-37
2023/08/11 02:58:42;;;;;;;4.50;3.10;;;13.90;99.90;;;13.63;100.00;97724.91;5042693;28;20037;-37
2023/08/11 03:01:08;;;;;;;4.25;3.10;;;13.90;99.90;;;13.61;100.00;97727.63;5038558;28;20067;-37
2023/08/11 03:03:34;;;;;;;4.55;3.25;;;13.90;99.90;;;13.65;100.00;97723.88;5042659;28;20335;-36
2023/08/11 03:06:00;;;;;;;4.00;3.05;;;13.90;99.90;;;13.61;100.00;97724.13;5040955;28;20056;-37
2023/08/11 03:08:26;;;;;;;4.28;2.75;;;13.90;99.90;;;13.63;100.00;97728.41;5040526;28;20067;-36
2023/08/11 03:10:51;;;;;;;5.50;3.10;;;13.90;99.90;;;13.62;100.00;97729.34;5041195;28;20043;-36
2023/08/11 03:13:17;;;;;;;3.40;2.78;;;13.90;99.90;;;13.61;100.00;97732.06;5040116;28;20397;-36
2023/08/11 03:15:43;;;;;;;3.20;2.70;;;13.80;99.90;;;13.59;100.00;97723.31;5038601;28;20479;-36
2023/08/11 03:18:10;;;;;;;4.95;2.85;;;13.80;99.90;;;13.54;100.00;97729.66;5036874;28;20115;-36
2023/08/11 03:20:36;;;;;;;3.83;2.90;;;13.80;99.90;;;13.54;100.00;97734.13;5035978;28;20037;-36
2023/08/11 03:23:04;;;;;;;6.15;3.25;;;13.80;99.90;;;13.46;100.00;97723.84;5040529;28;20033;-36
2023/08/11 03:25:30;;;;;;;5.68;3.20;;;13.80;99.90;;;13.52;100.00;97734.16;5041763;28;20032;-36
2023/08/11 03:27:56;;;;;;;4.78;3.15;;;13.70;99.90;;;13.49;100.00;97729.00;5040237;28;20025;-36
2023/08/11 03:30:22;;;;;;;3.22;2.63;;;13.70;99.90;;;13.48;100.00;97727.28;5040108;28;20871;-36
2023/08/11 03:32:48;;;;;;;4.93;3.22;;;13.70;99.90;;;13.43;100.00;97723.97;5039296;28;20025;-36
2023/08/11 03:35:17;;;;;;;6.68;3.15;;;13.70;99.90;;;13.45;100.00;97722.13;5041006;28;20060;-36
2023/08/11 03:37:43;;;;;;;4.80;3.40;;;13.70;99.90;;;13.46;100.00;97731.81;5036800;28;20044;-36
2023/08/11 03:40:12;;;;;;;4.03;2.97;;;13.70;99.90;;;13.42;100.00;97729.34;5039521;28;20024;-36
2023/08/11 03:42:40;;;;;;;3.67;2.80;;;13.70;99.90;;;13.43;100.00;97733.72;5036509;28;20435;-36
2023/08/11 03:45:07;;;;;;;3.78;2.90;;;13.70;99.90;;;13.40;100.00;97728.56;5037753;28;20060;-36
2023/08/11 03:47:32;;;;;;;4.70;2.90;;;13.60;99.90;;;13.38;100.00;97731.25;5039951;28;20043;-36
2023/08/11 03:49:58;;;;;;;4.78;3.28;;;13.60;99.90;;;13.37;100.00;97729.56;5041012;28;20033;-36
2023/08/11 03:52:24;;;;;;;5.90;3.13;;;13.60;99.90;;;13.37;100.00;97729.56;5036547;28;20033;-36
2023/08/11 03:54:50;;;;;;;6.78;3.40;;;13.60;99.90;;;13.36;100.00;97733.13;5039520;28;20083;-36
2023/08/11 03:57:17;;;;;;;5.20;3.50;;;13.60;99.90;;;13.35;100.00;97729.63;5037783;28;20564;-36
2023/08/11 03:59:42;;;;;;;5.22;3.60;;;13.60;99.90;;;13.36;100.00;97730.47;5041883;28;20183;-36
2023/08/11 04:02:08;;;;;;;5.55;3.40;;;13.60;99.90;;;13.35;100.00;97726.09;5035831;28;20576;-36
2023/08/11 04:04:34;;;;;;;5.03;3.45;;;13.60;99.90;;;13.34;100.00;97737.63;5037164;28;20109;-36
2023/08/11 04:07:00;;;;;;;4.18;3.28;;;13.60;99.90;;;13.34;100.00;97743.78;5036582;28;20029;-38
2023/08/11 04:09:25;;;;;;;4.75;3.03;;;13.60;99.90;;;13.35;100.00;97739.31;5043153;28;20052;-36
2023/08/11 04:11:51;;;;;;;4.95;3.30;;;13.60;99.90;;;13.34;100.00;97738.47;5038113;28;20130;-36
2023/08/11 04:14:17;;;;;;;5.00;3.03;;;13.60;99.90;;;13.36;100.00;97738.41;5037613;28;20043;-36
2023/08/11 04:16:43;;;;;;;4.55;3.05;;;13.60;99.90;;;13.35;100.00;97744.63;5037885;28;20039;-37
2023/08/11 04:19:10;;;;;;;4.50;2.85;;;13.60;99.90;;;13.37;100.00;97737.50;5038833;28;20032;-36
2023/08/11 04:21:36;;;;;;;4.25;3.33;;;13.60;99.90;;;13.39;100.00;97737.41;5037745;28;20055;-36
2023/08/11 04:24:02;;;;;;;4.72;3.10;;;13.70;99.90;;;13.41;100.00;97733.78;5037571;28;20477;-36
2023/08/11 04:26:28;;;;;;;4.93;3.40;;;13.70;99.90;;;13.45;100.00;97732.72;5037011;28;20439;-36
2023/08/11 04:28:53;;;;;;;3.50;3.20;;;13.70;99.90;;;13.49;100.00;97734.28;5036079;28;20037;-36
2023/08/11 04:31:19;;;;;;;4.25;3.03;;;13.80;99.90;;;13.51;100.00;97727.16;5033085;28;20025;-36
2023/08/11 04:33:45;;;;;;;4.78;3.33;;;13.80;99.90;;;13.54;100.00;97740.25;5039549;28;20039;-36
2023/08/11 04:36:10;;;;;;;3.75;2.83;;;13.80;99.90;;;13.51;100.00;97723.63;5036593;28;20029;-36
2023/08/11 04:38:36;;;;;;;3.10;2.70;;;13.80;99.90;;;13.60;100.00;97733.84;5038884;28;20041;-36
2023/08/11 04:41:02;;;;;;;5.22;3.00;;;13.80;99.90;;;13.62;100.00;97733.75;5037278;28;20835;-36
2023/08/11 04:43:29;;;;;;;5.00;3.28;;;13.90;99.90;;;13.61;100.00;97726.75;5036163;28;20137;-36
2023/08/11 04:45:54;;;;;;;4.63;3.10;;;13.90;99.90;;;13.67;100.00;97729.13;5036207;28;20044;-36
2023/08/11 04:48:21;;;;;;;6.00;3.17;;;14.00;99.90;;;13.68;100.00;97717.63;5036340;28;20032;-36
2023/08/11 04:50:50;;;;;;;4.80;3.05;;;14.00;99.90;;;13.76;100.00;97726.06;5034903;28;20155;-36
2023/08/11 04:53:17;;;;;;;5.05;3.70;;;14.00;99.90;;;13.80;100.00;97726.78;5034448;28;20525;-36
2023/08/11 04:55:43;;;;;;;5.60;2.97;;;14.10;99.90;;;13.93;100.00;97730.63;5039915;28;20037;-36
2023/08/11 04:58:09;;;;;;;5.30;3.20;;;14.20;99.90;;;14.00;100.00;97733.84;5038584;28;20021;-36
2023/08/11 05:00:35;;;;;;;5.50;3.58;;;14.20;99.90;;;14.09;100.00;97736.09;5032559;28;20052;-36
2023/08/11 05:03:00;;;;;;;5.70;3.60;;;14.30;99.90;;;14.17;100.00;97736.59;5035178;28;20517;-36
2023/08/11 05:05:26;;;;;;;4.20;3.17;;;14.40;99.90;;;14.24;100.00;97740.69;5036351;28;20044;-36
2023/08/11 05:07:52;;;;;;;5.05;3.30;;;14.50;99.90;;;14.32;100.00;97745.66;5036796;28;20036;-36
2023/08/11 05:10:18;;;;;;;5.05;3.40;;;14.60;99.90;;;14.39;100.00;97741.78;5038781;28;20114;-36
2023/08/11 05:12:45;;;;;;;4.82;3.20;;;14.60;99.90;;;14.47;100.00;97744.06;5036147;28;20108;-36
2023/08/11 05:15:11;;;;;;;6.50;3.20;;;14.70;99.90;;;14.55;100.00;97739.25;5036971;28;20527;-36
2023/08/11 05:17:37;;;;;;;5.70;3.63;;;14.80;99.90;;;14.63;100.00;97747.75;5028478;28;20630;-36
2023/08/11 05:20:07;;;;;;;5.55;3.50;;;14.90;99.90;;;14.73;100.00;97745.50;5035364;28;20144;-36
2023/08/11 05:22:37;;;;;;;6.88;3.55;;;14.90;99.90;;;14.82;100.00;97755.69;5038587;28;20037;-36
2023/08/11 05:25:06;;;;;;;5.20;3.20;;;15.10;99.90;;;14.94;100.00;97761.34;5031355;28;20041;-36
2023/08/11 05:27:32;;;;;;;5.35;3.50;;;15.20;99.90;;;15.05;100.00;97759.84;5027324;28;20074;-36
2023/08/11 05:29:58;;;;;;;4.35;3.25;;;15.30;99.90;;;15.10;100.00;97748.16;5027648;28;20037;-36
2023/08/11 05:32:24;;;;;;;5.68;3.33;;;15.40;99.90;;;15.28;100.00;97768.50;5025064;28;20122;-36
2023/08/11 05:34:51;;;;;;;5.20;3.05;;;15.50;99.90;;;15.36;100.00;97762.78;5031534;28;20080;-36
2023/08/11 05:37:17;;;;;;;4.38;3.30;;;15.60;99.90;;;15.44;100.00;97766.78;5032006;28;20028;-36
2023/08/11 05:39:43;;;;;;;6.28;3.30;;;15.70;99.90;;;15.54;100.00;97769.84;5035108;28;20452;-36
2023/08/11 05:42:09;;;;;;;5.15;3.20;;;15.80;99.90;;;15.59;100.00;97759.81;5031870;28;20033;-36
2023/08/11 05:44:35;;;;;;;3.75;3.05;;;15.80;99.90;;;15.72;100.00;97770.69;5021343;28;20061;-36
2023/08/11 05:47:01;;;;;;;4.90;3.42;;;15.90;99.90;;;15.80;100.00;97770.31;5025028;28;20734;-36
2023/08/11 05:49:27;;;;;;;4.85;3.50;;;16.00;99.90;;;15.87;100.00;97773.53;5033398;28;20021;-38
2023/08/11 05:51:54;;;;;;;3.83;3.20;;;16.10;99.90;;;15.96;100.00;97775.69;5038578;28;20089;-37
2023/08/11 05:54:20;;;;;;;4.25;3.10;;;16.10;99.90;;;16.01;100.00;97771.00;5036640;28;20049;-36
2023/08/11 05:56:45;;;;;;;5.55;3.13;;;16.20;99.90;;;15.99;100.00;97748.94;5041571;28;20059;-36
2023/08/11 05:59:11;;;;;;;4.95;3.25;;;16.30;99.90;;;16.20;100.00;97774.41;5032564;28;20421;-36
2023/08/11 06:01:37;;;;;;;6.90;3.17;;;16.40;99.90;;;16.33;100.00;97776.38;5038718;28;20029;-37
2023/08/11 06:04:03;;;;;;;4.65;3.10;;;16.50;99.90;;;16.44;100.00;97778.44;5038304;28;20437;-37
2023/08/11 06:06:31;;;;;;;5.55;3.25;;;16.60;99.90;;;16.51;100.00;97772.72;5040951;28;20496;-36
2023/08/11 06:08:56;;;;;;;5.30;3.25;;;16.70;99.90;;;16.61;100.00;97775.72;5041073;28;20032;-36
2023/08/11 06:11:22;;;;;;;4.07;3.03;;;16.80;99.90;;;16.65;100.00;97769.28;5041084;28;20029;-36
2023/08/11 06:13:48;;;;;;;4.63;2.83;;;16.90;99.90;;;16.78;100.00;97772.13;5038400;28;20131;-37
2023/08/11 06:16:13;;;;;;;3.95;3.08;;;17.00;99.90;;;16.83;100.00;97769.19;5035726;28;20444;-38
2023/08/11 06:18:39;;;;;;;4.68;3.05;;;17.10;99.90;;;16.97;100.00;97769.31;5038926;28;20025;-37
2023/08/11 06:21:05;;;;;;;5.95;3.65;;;17.20;99.90;;;17.06;100.00;97763.44;5031894;28;20021;-37
2023/08/11 06:23:32;;;;;;;6.70;3.30;;;17.30;99.90;;;17.14;100.00;97777.22;5040986;28;20053;-37
2023/08/11 06:25:58;;;;;;;6.90;4.07;;;17.40;99.90;;;17.18;100.00;97769.88;5041151;28;20029;-37
2023/08/11 06:28:24;;;;;;;7.40;4.05;;;17.40;99.90;;;17.28;100.00;97775.53;5034128;28;20408;-37
2023/08/11 06:30:49;;;;;;;11.23;4.57;;;17.50;99.90;;;17.35;100.00;97774.22;5038456;28;20450;-37
2023/08/11 06:33:15;;;;;;;9.95;3.15;;;17.50;99.90;;;17.46;100.00;97779.81;5037560;28;20039;-37
2023/08/11 06:35:42;;;;;;;4.93;3.63;;;17.60;99.90;;;17.58;100.00;97777.34;5039913;28;20037;-37
2023/08/11 06:38:10;;;;;;;5.03;3.30;;;17.80;99.90;;;17.67;100.00;97784.81;5037842;28;20481;-37
2023/08/11 06:40:38;;;;;;;4.82;3.45;;;17.90;99.90;;;17.77;100.00;97780.66;5039722;28;20024;-37
2023/08/11 06:43:04;;;;;;;5.38;3.10;;;18.00;99.90;;;17.86;100.00;97782.78;5039832;28;20094;-37
2023/08/11 06:45:30;;;;;;;4.10;3.00;;;18.00;99.90;;;17.99;100.00;97777.56;5039264;28;20489;-37
2023/08/11 06:47:56;;;;;;;4.72;3.03;;;18.20;99.90;;;18.04;100.00;97772.81;5042963;28;20073;-37
2023/08/11 06:50:22;;;;;;;6.78;3.33;;;18.30;99.90;;;18.24;100.00;97779.56;5040874;28;20036;-37
2023/08/11 06:52:47;;;;;;;4.65;3.10;;;18.40;99.90;;;18.41;100.00;97785.69;5043479;28;20112;-36
2023/08/11 06:55:13;;;;;;;7.55;3.15;;;18.50;99.90;;;18.51;100.00;97773.47;5039111;28;20044;-37
2023/08/11 06:57:39;;;;;;;5.70;2.95;;;18.70;99.90;;;18.64;100.00;97786.91;5042391;28;20074;-37
2023/08/11 07:00:07;;;;;;;5.07;2.85;;;18.80;99.90;;;18.83;100.00;97782.13;5041797;28;20040;-39
2023/08/11 07:02:34;;;;;;;3.53;2.47;;;18.90;99.90;;;19.03;100.00;97782.66;5043962;28;20047;-37
2023/08/11 07:05:00;;;;;;;4.25;2.58;;;19.10;99.90;;;19.26;100.00;97787.34;5041347;28;20029;-37
2023/08/11 07:07:26;;;;;;;5.97;2.85;;;19.40;99.90;;;19.52;100.00;97789.25;5042823;28;20036;-37
2023/08/11 07:09:52;;;;;;;4.78;2.88;;;19.60;99.90;;;19.78;100.00;97788.38;5041541;28;20029;-37
2023/08/11 07:12:17;;;;;;;3.33;2.58;;;19.80;99.90;;;20.05;100.00;97789.28;5039238;28;20352;-37
2023/08/11 07:14:43;;;;;;;4.28;2.85;;;20.00;99.90;;;20.30;99.10;97789.25;5042301;28;20044;-38
2023/08/11 07:17:10;;;;;;;5.45;3.05;;;20.20;99.90;;;20.53;96.16;97781.41;5043987;28;20526;-38
2023/08/11 07:19:36;;;;;;;4.20;3.05;;;20.30;99.90;;;20.75;94.13;97784.28;5042099;28;20031;-38
2023/08/11 07:22:02;;;;;;;5.47;2.85;;;20.60;99.90;;;21.00;90.69;97790.56;5038472;28;20675;-38
2023/08/11 07:24:28;;;;;;;4.20;2.80;;;20.80;99.90;;;21.13;89.76;97777.09;5041118;28;20028;-38
2023/08/11 07:26:54;;;;;;;4.60;3.13;;;20.90;99.90;;;21.38;86.71;97802.09;5044089;28;20052;-38
2023/08/11 07:29:19;;;;;;;3.63;2.67;;;21.10;99.90;;;21.55;90.07;97801.72;5040704;28;20378;-37
2023/08/11 07:31:45;;;;;;;4.45;2.92;;;21.30;99.90;;;21.66;86.00;97803.56;5040715;28;20021;-38
2023/08/11 07:34:11;;;;;;;5.88;2.92;;;21.40;99.90;;;21.80;85.95;97806.06;5038700;28;20032;-38
2023/08/11 07:36:37;;;;;;;3.20;2.42;;;21.50;99.90;;;21.92;84.54;97805.13;5040308;28;20025;-38
2023/08/11 07:39:03;;;;;;;6.75;3.20;;;21.70;99.90;;;21.90;81.24;97793.66;5040232;28;20363;-38
2023/08/11 07:41:29;;;;;;;5.10;2.80;;;21.80;99.90;;;22.03;82.31;97790.03;5042247;28;20477;-38
2023/08/11 07:43:55;;;;;;;3.15;2.47;;;21.90;99.90;;;22.22;81.93;97802.91;5038635;28;20117;-40
2023/08/11 07:46:21;;;;;;;4.63;2.75;;;22.00;99.90;;;22.30;81.14;97806.69;5039089;28;20032;-38
2023/08/11 07:48:46;;;;;;;3.38;3.00;;;22.10;99.90;;;22.26;80.48;97794.50;5042289;28;20219;-38
2023/08/11 07:51:14;;;;;;;4.15;2.83;;;22.20;99.90;;;22.36;78.86;97812.56;5040869;28;20029;-38
2023/08/11 07:53:40;;;;;;;4.65;2.83;;;22.20;99.90;;;22.40;79.68;97814.91;5041729;28;20033;-38
2023/08/11 07:56:05;;;;;;;5.63;3.10;;;22.30;99.90;;;22.39;81.49;97809.66;5036592;28;20546;-38
2023/08/11 07:58:32;;;;;;;5.53;2.80;;;22.30;99.90;;;22.38;80.71;97814.19;5038406;28;20094;-37
2023/08/11 08:00:57;;;;;;;3.38;3.00;;;22.30;99.90;;;22.36;78.03;97816.13;5037783;28;20037;-38
2023/08/11 08:03:23;;;;;;;6.95;3.20;;;22.30;99.90;;;22.36;79.68;97817.94;5040162;28;20083;-38
2023/08/11 08:05:49;;;;;;;2.90;2.47;;;22.30;99.90;;;22.36;78.63;97817.94;5039740;28;20029;-38
2023/08/11 08:08:15;;;;;;;5.68;3.17;;;22.30;99.90;;;22.40;79.07;97824.81;5038883;28;20526;-39
2023/08/11 08:10:41;;;;;;;5.90;3.50;;;22.30;99.90;;;22.34;78.70;97818.06;5038110;28;20049;-37
2023/08/11 08:13:07;;;;;;;5.90;3.10;;;22.30;99.90;;;22.34;77.76;97817.22;5038670;28;20025;-37
2023/08/11 08:15:33;;;;;;;4.18;2.80;;;22.30;99.90;;;22.36;77.59;97818.81;5036473;28;20464;-37
2023/08/11 08:17:58;;;;;;;5.22;3.15;;;22.30;99.90;;;22.37;78.99;97823.22;5044010;28;20033;-37
2023/08/11 08:20:24;;;;;;;8.85;3.10;;;22.30;99.90;;;22.43;78.84;97822.75;5038713;28;20040;-37
2023/08/11 08:22:50;;;;;;;3.17;2.85;;;22.40;99.90;;;22.50;78.18;97825.78;5040478;28;20032;-37
2023/08/11 08:25:15;;;;;;;4.05;2.90;;;22.40;99.90;;;22.58;79.98;97828.72;5037336;28;20063;-37
2023/08/11 08:27:41;;;;;;;4.05;2.60;;;22.50;99.90;;;22.64;81.89;97824.69;5038921;28;20045;-37
2023/08/11 08:30:10;;;;;;;3.95;3.03;;;22.60;99.90;;;22.74;74.44;97822.09;5037871;28;20104;-37
2023/08/11 08:32:38;;;;;;;7.50;3.00;;;22.70;99.90;;;22.81;75.86;97826.06;5038009;28;20032;-37
2023/08/11 08:35:05;;;;;;;5.20;3.05;;;22.70;99.90;;;22.80;74.26;97814.41;5039083;28;20041;-37
2023/08/11 08:37:31;;;;;;;7.25;3.08;;;22.80;99.90;;;22.97;75.57;97823.84;5033157;28;20202;-37
2023/08/11 08:39:57;;;;;;;6.97;3.38;;;22.90;99.90;;;22.95;69.11;97820.41;5030687;28;20449;-37
2023/08/11 08:42:25;;;;;;;5.10;2.88;;;23.00;99.90;;;23.04;76.23;97817.00;5032443;28;20436;-37
2023/08/11 08:44:53;;;;;;;4.03;2.83;;;23.00;99.90;;;23.20;75.61;97827.38;5032285;28;20496;-37
2023/08/11 08:47:21;;;;;;;3.92;2.60;;;23.10;99.90;;;23.20;72.75;97815.72;5023915;28;20539;-38
2023/08/11 08:49:48;;;;;;;3.30;2.65;;;23.20;99.90;;;23.31;71.78;97821.13;5035149;28;20029;-37
2023/08/11 08:52:15;;;;;;;3.90;2.90;;;23.20;99.90;;;23.39;72.79;97828.53;5037444;28;20096;-37
2023/08/11 08:54:42;;;;;;;6.55;3.22;;;23.30;99.90;;;23.37;69.96;97819.75;5035350;28;20041;-37
2023/08/11 08:57:09;;;;;;;3.80;3.30;;;23.30;99.90;;;23.31;71.10;97802.28;5036197;28;20039;-37
2023/08/11 08:59:39;;;;;;;5.25;3.40;;;23.30;99.90;;;23.47;71.97;97819.81;5036173;28;20064;-37
2023/08/11 09:02:06;;;;;;;6.38;3.05;;;23.40;99.90;;;23.53;74.12;97813.94;5038058;28;20024;-37
2023/08/11 09:04:33;;;;;;;5.57;3.00;;;23.40;99.90;;;23.57;71.42;97812.69;5040257;28;20090;-37
2023/08/11 09:07:00;;;;;;;3.72;2.75;;;23.50;99.90;;;23.63;66.88;97812.19;5038624;28;20078;-37
2023/08/11 09:09:29;;;;;;;4.28;2.72;;;23.60;99.90;;;23.71;68.66;97812.41;5037844;28;20035;-37
2023/08/11 09:11:56;;;;;;;4.75;2.63;;;23.60;99.90;;;23.77;67.00;97809.16;5037914;28;20021;-37
2023/08/11 09:14:22;;;;;;;5.10;3.08;;;23.70;99.90;;;23.87;68.73;97806.59;5041323;28;20037;-37
2023/08/11 09:16:52;;;;;;;3.67;3.13;;;23.80;99.90;;;23.94;69.33;97798.84;5034904;28;20047;-37
2023/08/11 09:19:19;;;;;;;3.63;2.90;;;23.90;99.90;;;24.01;68.49;97783.84;5037469;28;20074;-37
2023/08/11 09:21:45;;;;;;;3.88;2.90;;;24.00;99.90;;;24.12;65.79;97793.72;5037423;28;20029;-37
2023/08/11 09:24:12;;;;;;;4.00;2.80;;;24.10;99.90;;;24.22;67.21;97800.03;5038971;28;20533;-37
2023/08/11 09:26:45;;;;;;;2.63;2.40;;;24.10;99.90;;;24.22;66.44;97791.94;5040155;28;20362;-37
2023/08/11 09:29:12;;;;;;;4.40;3.13;;;24.20;99.90;;;24.31;66.80;97796.53;5036594;28;20070;-37
2023/08/11 09:31:41;;;;;;;3.92;2.80;;;24.30;99.90;;;24.39;64.44;97795.88;5033740;28;20156;-37
2023/08/11 09:34:17;;;;;;;3.40;2.83;;;24.30;99.90;;;24.46;65.07;97796.16;5040438;28;20033;-37
2023/08/11 09:36:48;;;;;;;4.47;3.08;;;24.30;99.90;;;24.52;62.98;97795.66;5039214;28;20112;-37
2023/08/11 09:39:15;;;;;;;3.88;2.83;;;24.40;99.90;;;24.52;61.81;97792.94;5039213;28;20481;-37
2023/08/11 09:41:43;;;;;;;4.93;3.10;;;24.40;99.90;;;24.59;63.05;97794.16;5038515;28;20043;-38
2023/08/11 09:44:11;;;;;;;3.88;3.08;;;24.50;99.90;;;24.66;61.36;97786.38;5037536;28;20063;-37
2023/08/11 09:46:38;;;;;;;5.47;3.38;;;24.60;99.90;;;24.73;61.57;97795.63;5037849;28;20029;-37
2023/08/11 09:49:05;;;;;;;4.97;3.17;;;24.60;99.90;;;24.73;62.46;97784.84;5035780;28;20036;-38
2023/08/11 09:51:34;;;;;;;3.58;2.92;;;24.70;99.90;;;24.79;62.48;97784.28;5036729;28;20107;-38
2023/08/11 09:54:05;;;;;;;6.22;3.42;;;24.70;99.90;;;24.86;62.16;97787.31;5037246;28;20124;-37
2023/08/11 09:56:37;;;;;;;4.70;2.78;;;24.80;99.90;;;24.92;61.41;97781.34;5039599;28;20111;-37
2023/08/11 09:59:05;;;;;;;3.78;2.97;;;24.90;99.90;;;25.02;60.86;97792.19;5037831;28;20152;-37
2023/08/11 10:01:35;;;;;;;4.68;3.00;;;24.90;99.90;;;24.99;58.13;97787.06;5036219;28;20040;-38
2023/08/11 10:04:10;;;;;;;7.90;3.10;;;24.90;99.90;;;24.98;59.52;97791.59;5037546;28;20401;-37
2023/08/11 10:06:40;;;;;;;4.85;3.22;;;24.90;99.90;;;24.94;62.17;97782.94;5036848;28;20459;-37
2023/08/11 10:09:12;;;;;;;6.15;3.17;;;24.90;99.90;;;25.06;62.96;97788.19;5039444;28;20063;-37
2023/08/11 10:11:39;;;;;;;4.20;3.25;;;25.00;99.90;;;25.17;63.60;97795.34;5033517;28;20028;-37
2023/08/11 10:14:05;;;;;;;4.78;3.30;;;25.10;99.90;;;25.20;59.28;97789.66;5039648;28;20396;-37